Tiempo atmosférico en la estación meteorológica de Bera, Navarra (78 m.)



Fecha
DESCASC
Temp. máxima en grados centígrados (hora)
DESCASC
Temp. mínima en grados centígrados (hora)
DESCASC
Temp. media en grados centígrados
DESCASC
Racha de viento máxima en m/sg (hora)
DESCASC
Velocidad máxima media en intervalos de 10 minutos(hora)
DESCASC
Precipitaciones diarias en mm
DESCASC
Precipitaciones de 00:00 a 06:00 en mm
DESCASC
Precipitaciones de 06:00 a 12:00 en mm
DESCASC
Precipitaciones de 12:00 a 18:00 en mm
DESCASC
Precipitaciones de 18:00 a 24:00 en mm
DESCASC
20-05-2018 21.4 (18:30) 10.3 (07:00) 15.8 6.67 (15:30) 3.33 (15:10) 0 0 0 0 0
19-05-2018 21.8 (14:00) 10.9 (23:59) 16.3 6.11 (13:40) 3.33 (15:40) 0 0 0 0 0
18-05-2018 20.9 (18:40) 13.4 (00:00) 17.1 7.22 (20:10) 3.89 (20:10) 0 0 0 0 0
17-05-2018 16.2 (17:10) 11.2 (00:00) 13.7 5 (17:30) 2.5 (18:30) 0 0 0 0 0
16-05-2018 15.8 (12:50) 8.4 (00:00) 12.1 4.44 (16:40) 2.22 (13:30) 0 0 0 0 0
15-05-2018 15.6 (17:50) 9.7 (00:00) 12.7 7.5 (13:20) 3.61 (17:10) 0 0 0 0 0
14-05-2018 14.8 (14:50) 8.5 (00:00) 11.7 9.44 (17:40) 3.89 (14:40) 6.6 5.6 0.6 0.2 0.2
13-05-2018 14.7 (15:30) 5.7 (00:00) 10.2 11.39 (15:30) 5.28 (15:30) 8.2 5 0.6 1.2 1.4
12-05-2018 13.5 (00:00) 6.7 (00:00) 10.1 7.5 (10:00) 3.33 (12:30) 17.8 6.2 5.4 4.6 1.6
11-05-2018 26.5 (15:00) 6.2 (07:50) 16.3 8.89 (15:30) 3.33 (15:30) 0 0 0 0 0
10-05-2018 14.8 (14:30) 10.5 (00:00) 12.7 5.83 (14:00) 2.78 (15:30) 4.8 0.4 1.6 2.8 0
09-05-2018 16.4 (17:00) 12.1 (00:00) 14.3 4.72 (18:50) 1.94 (18:50) 1.8 0 1.6 0.2 0
08-05-2018 16.3 (14:10) 12.7 (00:00) 14.5 7.78 (16:10) 3.61 (16:10) 0.2 0 0 0.2 0
07-05-2018 24.5 (13:50) 10.2 (00:00) 17.3 6.67 (15:30) 3.33 (15:30) 0 0 0 0 0
06-05-2018 25.1 (16:10) 8.5 (00:00) 16.8 6.11 (18:30) 3.33 (16:40) 0 0 0 0 0
05-05-2018 18.3 (18:20) 10.4 (00:00) 14.3 3.89 (19:30) 2.22 (18:10) 0 0 0 0 0
04-05-2018 17.1 (16:20) 11.1 (00:00) 14.1 8.33 (17:00) 3.61 (17:20) 0 0 0 0 0
03-05-2018 13.5 (16:50) 9.7 (00:00) 11.6 9.44 (04:00) 3.89 (19:00) 9.2 7.8 1.2 0.2 0
02-05-2018 17.8 (12:20) 2.6 (00:00) 10.2 6.39 (13:00) 3.33 (13:00) 9.8 0 0 0 9.8
01-05-2018 14.4 (15:10) 3.8 (23:59) 9.1 6.39 (14:30) 3.33 (14:50) 8 5.6 1.4 1 0
30-04-2018 14 (13:40) 7.4 (00:00) 10.7 9.44 (15:50) 3.89 (14:40) 1.6 0.4 0 0 1.2
29-04-2018 14.5 (16:10) 8 (00:00) 11.3 8.33 (12:40) 3.89 (12:50) 0 0 0 0 0
28-04-2018 13.4 (15:40) 9.8 (00:00) 11.6 3.33 (15:50) 1.94 (19:20) 6.6 2.8 0.6 0.2 3
27-04-2018 16.6 (11:20) 7 (00:00) 11.8 8.89 (11:30) 3.33 (11:30) 0 0 0 0 0
26-04-2018 16.7 (15:10) 8.1 (00:00) 12.4 6.11 (15:50) 2.78 (12:10) 1.6 1.6 0 0 0
25-04-2018 16.4 (00:00) 13.2 (00:00) 14.8 4.44 (14:40) 1.94 (14:50) 0.8 0 0.4 0 0.4
24-04-2018 25.9 (15:50) 14.6 (00:00) 20.3 7.22 (19:10) 3.89 (20:00) 0 0 0 0 0
23-04-2018 19 (16:30) 13.9 (00:00) 16.4 6.11 (17:40) 3.33 (17:30) 0.2 0 0.2 0 0
22-04-2018 25.3 (11:50) 15.2 (00:00) 20.2 7.22 (06:10) 3.61 (12:30) 3.6 0 0 0 3.6

Gráficas

Temp. máximas Temp. mínimas Temp. medias Precipitaciones Rachas de viento máximas Velocidades máximas media en intervalos de 10 minutos

Datos horarios

Fecha y hora oficial Temperatura (ºC) Velocidad del viento (km/h) Dirección del viento Racha (km/h) Dirección de racha Precipitación (mm) Presión (hPa) Tendencia (hPa) Humedad (%)
2018-05-21 23:00:00 14.2 0 Calma 3 Sudeste 0 -- -- 92
2018-05-21 22:00:00 16 0 Calma 4 Noroeste 0 -- -- 90
2018-05-21 21:00:00 17.5 3 Noroeste 12 Oeste 0 -- -- 84
2018-05-21 20:00:00 17.8 3 Noroeste 11 Sudoeste 0 -- -- 83
2018-05-21 19:00:00 17.5 6 Sudoeste 19 Sudoeste 1.2 -- -- 78
2018-05-21 18:00:00 21.2 5 Sur 20 Noroeste 0 -- -- 58
2018-05-21 17:00:00 22.9 13 Noroeste 25 Norte 0 -- -- 66
2018-05-21 16:00:00 26 10 Noroeste 22 Noroeste 0 -- -- 59
2018-05-21 15:00:00 26.3 4 Norte 13 Nordeste 0 -- -- 49
2018-05-21 14:00:00 24.9 5 Nordeste 14 Nordeste 0 -- -- 50
2018-05-21 13:00:00 22.1 4 Noroeste 10 Noroeste 0 -- -- 68
2018-05-21 12:00:00 18.8 0 Calma 4 Nordeste 0 -- -- 82
2018-05-21 11:00:00 16.5 0 Calma 4 Oeste 0 -- -- 88
2018-05-21 10:00:00 15.1 0 Calma 5 Este 0 -- -- 89
2018-05-21 09:00:00 12.8 0 Calma 4 Sudoeste 0 -- -- 96
2018-05-21 08:00:00 12.2 0 Calma 4 Nordeste 0 -- -- 97
2018-05-21 07:00:00 12.2 2 Nordeste 4 Norte 0 -- -- 96
2018-05-21 06:00:00 12.2 2 Noroeste 4 Noroeste 0 -- -- 97
2018-05-21 05:00:00 12.3 0 Calma 4 Noroeste 0 -- -- 97
2018-05-21 04:00:00 12.3 0 Calma 3 Norte 0 -- -- 97
2018-05-21 03:00:00 11.8 0 Calma 4 Nordeste 0 -- -- 96
2018-05-21 02:00:00 11.4 0 Calma 5 Este 0 -- -- 95
2018-05-21 01:00:00 12 0 Calma 3 Sur 0 -- -- 93
2018-05-21 00:00:00 13 2 Sudeste 4 Sur 0 -- -- 94
2018-05-20 23:00:00 14 2 Sudeste 4 Sudeste 0 -- -- 90
2018-05-20 22:00:00 15.7 2 Noroeste 14 Noroeste 0 -- -- 86
2018-05-20 21:00:00 17.4 7 Noroeste 16 Noroeste 0 -- -- 80
2018-05-20 20:00:00 19.8 7 Noroeste 15 Noroeste 0 -- -- 70
2018-05-20 19:00:00 21.1 6 Noroeste 16 Noroeste 0 -- -- 62
2018-05-20 18:00:00 21.2 8 Norte 22 Noroeste 0 -- -- 62
2018-05-20 17:00:00 20.8 10 Norte 22 Norte 0 -- -- 61
2018-05-20 16:00:00 20.6 11 Norte 24 Nordeste 0 -- -- 62
2018-05-20 15:00:00 20.7 9 Norte 20 Norte 0 -- -- 64
2018-05-20 14:00:00 20.6 9 Norte 19 Norte 0 -- -- 60
2018-05-20 13:00:00 20.7 8 Noroeste 17 Noroeste 0 -- -- 67
2018-05-20 12:00:00 19.8 3 Norte 11 Noroeste 0 -- -- 61
2018-05-20 11:00:00 17.1 2 Noroeste 5 Noroeste 0 -- -- 72
2018-05-20 10:00:00 13.1 2 Este 4 Este 0 -- -- 86
2018-05-20 09:00:00 10.9 3 Sudoeste 5 Sudoeste 0 -- -- 95
2018-05-20 08:00:00 10.4 3 Oeste 4 Sudoeste 0 -- -- 95
2018-05-20 07:00:00 10.3 2 Sudoeste 6 Sudoeste 0 -- -- 95
2018-05-20 06:00:00 10.5 3 Oeste 6 Oeste 0 -- -- 95
2018-05-20 05:00:00 10.8 4 Oeste 8 Sudoeste 0 -- -- 96
2018-05-20 04:00:00 11 5 Sudoeste 8 Sudoeste 0 -- -- 95
2018-05-20 03:00:00 11.5 0 Calma 4 Sudeste 0 -- -- 94
2018-05-20 02:00:00 11.6 0 Calma 3 Sudeste 0 -- -- 95
2018-05-20 01:00:00 11 0 Calma 3 Nordeste 0 -- -- 94
2018-05-20 00:00:00 10.9 0 Calma 2 Este 0 -- -- 93
2018-05-19 23:00:00 12.3 0 Calma 5 Sudeste 0 -- -- 89
2018-05-19 22:00:00 14.4 3 Sudeste 8 Oeste 0 -- -- 85
2018-05-19 21:00:00 17.2 3 Norte 14 Noroeste 0 -- -- 75
2018-05-19 20:00:00 19.4 5 Norte 15 Noroeste 0 -- -- 62
2018-05-19 19:00:00 20.3 8 Noroeste 17 Noroeste 0 -- -- 63
2018-05-19 18:00:00 20.6 7 Norte 21 Nordeste 0 -- -- 59
2018-05-19 17:00:00 20.2 7 Nordeste 21 Nordeste 0 -- -- 66
2018-05-19 16:00:00 20.4 10 Nordeste 22 Norte 0 -- -- 66
2018-05-19 15:00:00 20.3 8 Norte 20 Norte 0 -- -- 67
2018-05-19 14:00:00 21.8 9 Norte 22 Nordeste 0 -- -- 67
2018-05-19 13:00:00 20.9 8 Norte 19 Nordeste 0 -- -- 68
2018-05-19 12:00:00 20.2 4 Este 8 Sudeste 0 -- -- 70
2018-05-19 11:00:00 18.1 3 Este 8 Este 0 -- -- 73
2018-05-19 10:00:00 16.2 0 Calma 4 Sudoeste 0 -- -- 83
2018-05-19 09:00:00 15.2 2 Oeste 4 Sudoeste 0 -- -- 89
2018-05-19 08:00:00 14.2 0 Calma 3 Noroeste 0 -- -- 93
2018-05-19 07:00:00 14 0 Calma 3 Sudeste 0 -- -- 94
2018-05-19 06:00:00 13.9 0 Calma 2 Sur 0 -- -- 95
2018-05-19 05:00:00 13.8 0 Calma 2 Oeste 0 -- -- 95
2018-05-19 04:00:00 13.6 0 Calma 2 Sudoeste 0 -- -- 95
2018-05-19 03:00:00 13.3 0 Calma 5 Sudeste 0 -- -- 95
2018-05-19 02:00:00 13.2 0 Calma 3 Sudeste 0 -- -- 94
2018-05-19 01:00:00 13.6 0 Calma 3 Norte 0 -- -- 93
2018-05-19 00:00:00 15 2 Sudoeste 5 Sur 0 -- -- 90
2018-05-18 23:00:00 15.5 0 Calma 4 Este 0 -- -- 89
2018-05-18 22:00:00 15.9 2 Este 16 Norte 0 -- -- 87
2018-05-18 21:00:00 15.9 5 Norte 26 Noroeste 0 -- -- 87
2018-05-18 20:00:00 18 13 Noroeste 23 Noroeste 0 -- -- 79
2018-05-18 19:00:00 20.5 5 Norte 12 Noroeste 0 -- -- 69
2018-05-18 18:00:00 20.1 6 Noroeste 17 Norte 0 -- -- 73
2018-05-18 17:00:00 19.3 8 Norte 18 Norte 0 -- -- 71
2018-05-18 16:00:00 18.6 8 Noroeste 19 Norte 0 -- -- 76
2018-05-18 15:00:00 18.3 9 Norte 20 Noroeste 0 -- -- 77
2018-05-18 14:00:00 18.5 7 Norte 14 Noroeste 0 -- -- 75
2018-05-18 13:00:00 17.8 5 Oeste 9 Oeste 0 -- -- 79
2018-05-18 12:00:00 16.5 2 Sudeste 4 Sur 0 -- -- 81
2018-05-18 11:00:00 16.2 0 Calma 0 Calma 0 -- -- 82
2018-05-18 10:00:00 15.4 0 Calma 0 Calma 0 -- -- 83
2018-05-18 09:00:00 14.1 0 Calma 0 Calma 0 -- -- 94
2018-05-18 08:00:00 13.5 0 Calma 0 Calma 0 -- -- 95
2018-05-18 07:00:00 13.4 0 Calma 0 Calma 0 -- -- 95
2018-05-18 06:00:00 13.4 0 Calma 0 Calma 0 -- -- 94
2018-05-18 05:00:00 13.5 0 Calma 0 Calma 0 -- -- 94
2018-05-18 04:00:00 13.5 0 Calma 0 Calma 0 -- -- 94
2018-05-18 03:00:00 13.5 0 Calma 3 Este 0 -- -- 93
2018-05-18 02:00:00 13.5 0 Calma 3 Sudeste 0 -- -- 92
2018-05-18 01:00:00 14.1 2 Sur 5 Norte 0 -- -- 90
2018-05-18 00:00:00 14.1 3 Sur 6 Nordeste 0 -- -- 91
2018-05-17 23:00:00 14.6 0 Calma 8 Noroeste 0 -- -- 86
2018-05-17 22:00:00 14.6 2 Norte 10 Noroeste 0 -- -- 85
2018-05-17 21:00:00 14.8 5 Norte 15 Noroeste 0 -- -- 82
2018-05-17 20:00:00 15.2 4 Noroeste 15 Norte 0 -- -- 82
2018-05-17 19:00:00 15.5 8 Norte 18 Norte 0 -- -- 80
2018-05-17 18:00:00 15.8 6 Norte 18 Noroeste 0 -- -- 80
2018-05-17 17:00:00 16 2 Noroeste 13 Noroeste 0 -- -- 80
2018-05-17 16:00:00 15.3 4 Norte 17 Norte 0 -- -- 81
2018-05-17 15:00:00 15.4 7 Norte 17 Noroeste 0 -- -- 79
2018-05-17 14:00:00 16.1 6 Noroeste 13 Noroeste 0 -- -- 78
2018-05-17 13:00:00 15.5 5 Norte 12 Norte 0 -- -- 79
2018-05-17 12:00:00 14.8 3 Norte 9 Noroeste 0 -- -- 79
2018-05-17 11:00:00 14.2 2 Norte 6 Noroeste 0 -- -- 81
2018-05-17 10:00:00 13.7 0 Calma 3 Norte 0 -- -- 84
2018-05-17 09:00:00 12.7 0 Calma 3 Oeste 0 -- -- 91
2018-05-17 08:00:00 11.9 0 Calma 2 Sudeste 0 -- -- 94
2018-05-17 07:00:00 11.4 0 Calma 2 Este 0 -- -- 95
2018-05-17 06:00:00 11.2 0 Calma 3 Sudeste 0 -- -- 94
2018-05-17 05:00:00 12 0 Calma 3 Oeste 0 -- -- 92
2018-05-17 04:00:00 12.1 0 Calma 3 Noroeste 0 -- -- 91
2018-05-17 03:00:00 12.2 0 Calma 3 Noroeste 0 -- -- 90
2018-05-17 02:00:00 12.3 0 Calma 0 Calma 0 -- -- 90
2018-05-17 01:00:00 12.5 0 Calma 3 Sudeste 0 -- -- 88
2018-05-17 00:00:00 12.7 0 Calma 4 Sudeste 0 -- -- 88
2018-05-16 23:00:00 13.2 0 Calma 4 Norte 0 -- -- 86
2018-05-16 22:00:00 13.7 3 Norte 13 Norte 0 -- -- 81
2018-05-16 21:00:00 14.2 4 Norte 13 Noroeste 0 -- -- 80
2018-05-16 20:00:00 14.8 4 Norte 12 Noroeste 0 -- -- 76
2018-05-16 19:00:00 15.5 3 Norte 10 Norte 0 -- -- 75
2018-05-16 18:00:00 15.5 3 Nordeste 9 Oeste 0 -- -- 73
2018-05-16 17:00:00 15 5 Norte 16 Norte 0 -- -- 74
2018-05-16 16:00:00 15.5 6 Norte 14 Norte 0 -- -- 74
2018-05-16 15:00:00 15.2 3 Norte 13 Noroeste 0 -- -- 76
2018-05-16 14:00:00 14.8 6 Oeste 15 Noroeste 0 -- -- 77
2018-05-16 13:00:00 15.8 5 Norte 15 Noroeste 0 -- -- 72
2018-05-16 12:00:00 14.6 5 Sudoeste 13 Oeste 0 -- -- 81
2018-05-16 11:00:00 14.5 6 Oeste 13 Oeste 0 -- -- 81
2018-05-16 10:00:00 12 0 Calma 3 Nordeste 0 -- -- 89
2018-05-16 09:00:00 10 0 Calma 3 Nordeste 0 -- -- 95
2018-05-16 08:00:00 9.3 0 Calma 3 Sur 0 -- -- 97
2018-05-16 07:00:00 8.7 0 Calma 4 Nordeste 0 -- -- 97
2018-05-16 06:00:00 8.4 0 Calma 4 Sudeste 0 -- -- 95
2018-05-16 05:00:00 9 0 Calma 3 Sudeste 0 -- -- 94
2018-05-16 04:00:00 9.7 0 Calma 2 Sur 0 -- -- 95
2018-05-16 03:00:00 9.9 0 Calma 2 Este 0 -- -- 95
2018-05-16 02:00:00 9.5 0 Calma 3 Sudeste 0 -- -- 96
2018-05-16 01:00:00 9 0 Calma 3 Sudeste 0 -- -- 94
2018-05-16 00:00:00 9.7 2 Sudeste 3 Sudeste 0 -- -- 92
2018-05-15 23:00:00 11.3 0 Calma 4 Sudeste 0 -- -- 89
2018-05-15 22:00:00 11.9 0 Calma 9 Oeste 0 -- -- 84
2018-05-15 21:00:00 13.9 4 Noroeste 16 Oeste 0 -- -- 75
2018-05-15 20:00:00 14.8 4 Noroeste 22 Noroeste 0 -- -- 72
2018-05-15 19:00:00 15.3 8 Oeste 26 Noroeste 0 -- -- 68
2018-05-15 18:00:00 15.5 13 Noroeste 26 Noroeste 0 -- -- 69
2018-05-15 17:00:00 15.4 12 Oeste 24 Oeste 0 -- -- 73
2018-05-15 16:00:00 15.1 11 Noroeste 24 Oeste 0 -- -- 72
2018-05-15 15:00:00 13.8 8 Noroeste 24 Sudoeste 0 -- -- 79
2018-05-15 14:00:00 13.8 10 Oeste 27 Noroeste 0 -- -- 79
2018-05-15 13:00:00 13.7 6 Noroeste 20 Sudoeste 0 -- -- 80
2018-05-15 12:00:00 13.7 12 Noroeste 26 Oeste 0 -- -- 77
2018-05-15 11:00:00 13.4 6 Oeste 16 Oeste 0 -- -- 78
2018-05-15 10:00:00 12.8 5 Oeste 15 Oeste 0 -- -- 80
2018-05-15 09:00:00 12.2 9 Oeste 19 Oeste 0 -- -- 80
2018-05-15 08:00:00 11.9 5 Oeste 14 Oeste 0 -- -- 81
2018-05-15 07:00:00 11.9 4 Oeste 18 Oeste 0 -- -- 80
2018-05-15 06:00:00 11.8 6 Oeste 18 Oeste 0 -- -- 79
2018-05-15 05:00:00 11.9 5 Noroeste 15 Noroeste 0 -- -- 79
2018-05-15 04:00:00 11.4 3 Oeste 6 Oeste 0 -- -- 85
2018-05-15 03:00:00 11.3 2 Sudoeste 6 Sudoeste 0 -- -- 86
2018-05-15 02:00:00 11.2 0 Calma 7 Sudoeste 0 -- -- 86
2018-05-15 01:00:00 11.1 0 Calma 3 Este 0 -- -- 89
2018-05-15 00:00:00 11.2 0 Calma 4 Sudeste 0 -- -- 88
2018-05-14 23:00:00 11.5 2 Sudeste 6 Sudeste 0 -- -- 84
2018-05-14 22:00:00 12.2 0 Calma 10 Oeste 0 -- -- 79
2018-05-14 21:00:00 13 4 Noroeste 15 Noroeste 0 -- -- 70
2018-05-14 20:00:00 13.5 4 Noroeste 20 Oeste 0 -- -- 70
2018-05-14 19:00:00 14 6 Noroeste 22 Norte 0.2 -- -- 71
2018-05-14 18:00:00 14.1 9 Noroeste 34 Noroeste 0 -- -- 70
2018-05-14 17:00:00 13.7 9 Norte 26 Nordeste 0.2 -- -- 74
2018-05-14 16:00:00 13.9 13 Noroeste 30 Oeste 0 -- -- 73
2018-05-14 15:00:00 14.6 13 Oeste 27 Oeste 0 -- -- 76
2018-05-14 14:00:00 13.5 5 Noroeste 21 Norte 0 -- -- 78
2018-05-14 13:00:00 14 10 Noroeste 24 Noroeste 0 -- -- 78
2018-05-14 12:00:00 13.8 7 Oeste 22 Noroeste 0 -- -- 82
2018-05-14 11:00:00 13.8 8 Oeste 19 Oeste 0 -- -- 83
2018-05-14 10:00:00 11.9 0 Calma 5 Nordeste 0 -- -- 93
2018-05-14 09:00:00 9.6 0 Calma 3 Norte 0 -- -- 97
2018-05-14 08:00:00 8.7 0 Calma 2 Nordeste 0.2 -- -- 99
2018-05-14 07:00:00 8.5 0 Calma 3 Noroeste 0.4 -- -- 99
2018-05-14 06:00:00 8.6 0 Calma 6 Noroeste 1.2 -- -- 98
2018-05-14 05:00:00 8.7 0 Calma 3 Sudeste 1 -- -- 98
2018-05-14 04:00:00 8.8 0 Calma 3 Nordeste 0.2 -- -- 98
2018-05-14 03:00:00 8.9 0 Calma 3 Este 0.6 -- -- 98
2018-05-14 02:00:00 9 0 Calma 4 Sur 2 -- -- 97
2018-05-14 01:00:00 9.1 0 Calma 6 Nordeste 0.6 -- -- 96
2018-05-11 20:00:00 -- -- -- -- -- -- -- -- --
2018-05-11 19:00:00 -- -- -- -- -- -- -- -- --
2018-05-11 18:00:00 -- -- -- -- -- -- -- -- --
2018-05-11 17:00:00 21.5 4 Norte 23 Noroeste 0 -- -- 49
2018-05-11 16:00:00 23.7 9 Norte 32 Oeste 0 -- -- 45
2018-05-11 15:00:00 26.5 5 Sur 21 Sudoeste 0 -- -- 34
2018-05-11 14:00:00 25.2 11 Sur 23 Sudoeste 0 -- -- 40
2018-05-11 13:00:00 24.3 10 Sur 21 Sudoeste 0 -- -- 45
2018-05-11 12:00:00 22.6 6 Sudeste 27 Sur 0 -- -- 47
2018-05-11 11:00:00 20.5 11 Sur 27 Sur 0 -- -- 47
2018-05-11 10:00:00 18.2 9 Sur 25 Sudoeste 0 -- -- 53
2018-05-11 09:00:00 10.2 3 Norte 6 Nordeste 0 -- -- 93
2018-05-11 08:00:00 6.3 0 Calma 3 Noroeste 0 -- -- 98
2018-05-11 07:00:00 6.6 2 Sudeste 4 Este 0 -- -- 98
2018-05-11 06:00:00 7 0 Calma 4 Este 0 -- -- 98
2018-05-11 05:00:00 7.3 2 Nordeste 4 Este 0 -- -- 97
2018-05-11 04:00:00 7.2 0 Calma 5 Sudeste 0 -- -- 97
2018-05-11 03:00:00 6.7 0 Calma 5 Sudeste 0 -- -- 95
2018-05-11 02:00:00 8.2 0 Calma 5 Este 0 -- -- 91
2018-05-11 01:00:00 10.4 0 Calma 3 Este 0 -- -- 91
2018-05-11 00:00:00 10.5 0 Calma 4 Noroeste 0 -- -- 90
2018-05-10 23:00:00 10.7 0 Calma 3 Sudeste 0 -- -- 88
2018-05-10 22:00:00 11 0 Calma 4 Noroeste 0 -- -- 84
2018-05-10 21:00:00 12.6 2 Noroeste 10 Nordeste 0 -- -- 77
2018-05-10 20:00:00 13.7 4 Norte 13 Noroeste 0 -- -- 66
2018-05-10 19:00:00 14.5 5 Norte 19 Noroeste 0 -- -- 64
2018-05-10 18:00:00 14.3 6 Norte 19 Norte 0 -- -- 69
2018-05-10 17:00:00 13.6 4 Noroeste 18 Oeste 0 -- -- 74
2018-05-10 16:00:00 14 5 Norte 21 Noroeste 0 -- -- 77
2018-05-10 15:00:00 14.6 7 Norte 21 Norte 0 -- -- 79
2018-05-10 14:00:00 14.2 8 Norte 21 Noroeste 1.4 -- -- 86
2018-05-10 13:00:00 14.2 4 Noroeste 9 Norte 1.4 -- -- 91
2018-05-10 12:00:00 13.7 0 Calma 9 Oeste 0.8 -- -- 91
2018-05-10 11:00:00 13.9 5 Oeste 10 Oeste 0 -- -- 88
2018-05-10 10:00:00 13.4 0 Calma 7 Sudeste 0.2 -- -- 92
2018-05-10 09:00:00 11.5 0 Calma 2 Sur 0.6 -- -- 97
2018-05-10 08:00:00 11 0 Calma 2 Sudoeste 0 -- -- 97
2018-05-10 07:00:00 10.5 0 Calma 4 Sudeste 0 -- -- 95
2018-05-10 06:00:00 11.6 3 Sudoeste 6 Noroeste 0.2 -- -- 96
2018-05-10 05:00:00 11.8 0 Calma 4 Sudeste 0 -- -- 95
2018-05-10 04:00:00 11.9 0 Calma 4 Sudeste 0 -- -- 94
2018-05-10 03:00:00 12.1 0 Calma 8 Noroeste 0.2 -- -- 93
2018-05-10 02:00:00 12.5 4 Noroeste 11 Oeste 0 -- -- 91
2018-05-10 01:00:00 12.7 0 Calma 8 Sudeste 0 -- -- 93
2018-05-10 00:00:00 12.8 0 Calma 5 Sudeste 0 -- -- 93
2018-05-09 23:00:00 12.7 0 Calma 5 Sudeste 0 -- -- 92
2018-05-09 22:00:00 13.8 2 Este 7 Noroeste 0 -- -- 87
2018-05-09 21:00:00 14.7 3 Noroeste 10 Noroeste 0 -- -- 83
2018-05-09 20:00:00 15.3 3 Norte 8 Norte 0 -- -- 84
2018-05-09 19:00:00 15.4 5 Norte 17 Norte 0 -- -- 85
2018-05-09 18:00:00 15.7 4 Noroeste 15 Noroeste 0 -- -- 85
2018-05-09 17:00:00 16.4 2 Sudoeste 9 Oeste 0 -- -- 84
2018-05-09 16:00:00 15.3 4 Noroeste 10 Oeste 0 -- -- 89
2018-05-09 15:00:00 14.6 -- -- -- -- 0 -- -- 90
2018-05-09 14:00:00 14.3 3 Oeste 13 Sudoeste 0.2 -- -- 92
2018-05-09 13:00:00 14.5 6 Oeste 16 Oeste 0 -- -- 91
2018-05-09 12:00:00 14.1 0 Calma 3 Sudoeste 0 -- -- 92
2018-05-09 11:00:00 13.1 0 Calma 3 Nordeste 0.8 -- -- 95
2018-05-09 10:00:00 12.6 0 Calma 3 Nordeste 0.4 -- -- 94
2018-05-09 09:00:00 12.3 0 Calma 3 Noroeste 0.4 -- -- 94
2018-05-09 08:00:00 12.3 0 Calma 3 Noroeste 0 -- -- 94
2018-05-09 07:00:00 12.2 3 Noroeste 5 Noroeste 0 -- -- 94
2018-05-09 06:00:00 12.2 2 Sudoeste 4 Nordeste 0 -- -- 94
2018-05-09 05:00:00 12.2 0 Calma 4 Noroeste 0 -- -- 94
2018-05-09 04:00:00 12.3 0 Calma 4 Norte 0 -- -- 93
2018-05-09 03:00:00 12.4 0 Calma 4 Este 0 -- -- 92
2018-05-09 02:00:00 12.6 3 Sudeste 6 Este 0 -- -- 90
2018-05-09 01:00:00 12.8 0 Calma 6 Sudoeste 0 -- -- 89
2018-05-09 00:00:00 13.1 3 Oeste 15 Noroeste 0 -- -- 86
2018-05-08 23:00:00 13.4 5 Oeste 17 Noroeste 0 -- -- 88
2018-05-08 22:00:00 13.7 4 Noroeste 12 Norte 0 -- -- 90
2018-05-08 21:00:00 13.8 4 Oeste 16 Oeste 0 -- -- 90
2018-05-08 20:00:00 14.2 3 Oeste 19 Oeste 0 -- -- 89
2018-05-08 19:00:00 14.6 2 Nordeste 22 Noroeste 0 -- -- 88
2018-05-08 18:00:00 14.5 4 Oeste 21 Oeste 0.2 -- -- 89
2018-05-08 17:00:00 15.3 8 Oeste 28 Sudoeste 0 -- -- 86
2018-05-08 16:00:00 16 8 Noroeste 18 Noroeste 0 -- -- 84
2018-05-08 15:00:00 15.9 6 Oeste 19 Oeste 0 -- -- 87
2018-05-08 14:00:00 16.2 8 Oeste 23 Oeste 0 -- -- 85
2018-05-08 13:00:00 15.7 2 Oeste 15 Oeste 0 -- -- 87
2018-05-08 12:00:00 15.4 6 Oeste 14 Oeste 0 -- -- 89
2018-05-08 11:00:00 15.8 3 Noroeste 10 Noroeste 0 -- -- 88
2018-05-08 10:00:00 15.4 0 Calma 4 Oeste 0 -- -- 88
2018-05-08 09:00:00 14.7 0 Calma 8 Noroeste 0 -- -- 92
2018-05-08 08:00:00 14.4 4 Norte 14 Noroeste 0 -- -- 94
2018-05-08 07:00:00 14.4 3 Noroeste 10 Noroeste 0 -- -- 96
2018-05-08 06:00:00 14.1 0 Calma 4 Sudeste 0 -- -- 96
2018-05-08 05:00:00 14.1 2 Sudeste 6 Norte 0 -- -- 96
2018-05-08 04:00:00 13.9 0 Calma 3 Noroeste 0 -- -- 96
2018-05-08 03:00:00 13.3 0 Calma 5 Este 0 -- -- 96
2018-05-08 02:00:00 12.8 0 Calma 3 Sudeste 0 -- -- 94
2018-05-08 01:00:00 13.7 0 Calma 5 Sudeste 0 -- -- 94
2018-05-08 00:00:00 14.6 0 Calma 3 Este 0 -- -- 92
2018-05-07 23:00:00 16.1 2 Sudeste 4 Sudeste 0 -- -- 89
2018-05-07 22:00:00 17.6 0 Calma 6 Sur 0 -- -- 86
2018-05-07 21:00:00 20.2 3 Norte 9 Noroeste 0 -- -- 74
2018-05-07 20:00:00 21.7 3 Noroeste 14 Norte 0 -- -- 68
2018-05-07 19:00:00 22.6 4 Nordeste 16 Noroeste 0 -- -- 65
2018-05-07 18:00:00 22.2 9 Noroeste 21 Noroeste 0 -- -- 64
2018-05-07 17:00:00 24.2 12 Noroeste 23 Noroeste 0 -- -- 58
2018-05-07 16:00:00 24.3 11 Noroeste 24 Noroeste 0 -- -- 57
2018-05-07 15:00:00 23.8 12 Norte 22 Noroeste 0 -- -- 61
2018-05-07 14:00:00 24 10 Noroeste 19 Noroeste 0 -- -- 63
2018-05-07 13:00:00 24 6 Norte 15 Noroeste 0 -- -- 64
2018-05-07 12:00:00 23.4 4 Sudeste 11 Noroeste 0 -- -- 68
2018-05-07 11:00:00 20.4 0 Calma 4 Noroeste 0 -- -- 74
2018-05-07 10:00:00 16.8 2 Nordeste 4 Nordeste 0 -- -- 82
2018-05-07 09:00:00 13.3 0 Calma 2 Noroeste 0 -- -- 96
2018-05-07 08:00:00 11.6 0 Calma 2 Nordeste 0 -- -- 98
2018-05-07 07:00:00 11.2 0 Calma 2 Nordeste 0 -- -- 97
2018-05-07 06:00:00 10.7 2 Este 3 Sudeste 0 -- -- 97
2018-05-07 05:00:00 10.3 0 Calma 2 Sudeste 0 -- -- 96
2018-05-07 04:00:00 10.3 0 Calma 3 Este 0 -- -- 95
2018-05-07 03:00:00 10.8 0 Calma 4 Sudeste 0 -- -- 95
2018-05-07 02:00:00 11.2 0 Calma 5 Sudeste 0 -- -- 94
2018-05-07 01:00:00 11.8 0 Calma 3 Sudeste 0 -- -- 93
2018-05-07 00:00:00 12.6 0 Calma 3 Sur 0 -- -- 92
2018-05-06 23:00:00 13.7 2 Sudeste 4 Este 0 -- -- 89
2018-05-06 22:00:00 15.4 0 Calma 6 Este 0 -- -- 82
2018-05-06 21:00:00 18.8 0 Calma 14 Noroeste 0 -- -- 70
2018-05-06 20:00:00 21 7 Noroeste 18 Noroeste 0 -- -- 61
2018-05-06 19:00:00 22.7 10 Noroeste 22 Noroeste 0 -- -- 57
2018-05-06 18:00:00 23.9 11 Noroeste 21 Noroeste 0 -- -- 53
2018-05-06 17:00:00 24.5 8 Norte 21 Noroeste 0 -- -- 54
2018-05-06 16:00:00 25 7 Noroeste 15 Noroeste 0 -- -- 52
2018-05-06 15:00:00 24.1 7 Sudoeste 19 Noroeste 0 -- -- 59
2018-05-06 14:00:00 23.2 10 Noroeste 21 Noroeste 0 -- -- 57
2018-05-06 13:00:00 22.4 4 Norte 10 Norte 0 -- -- 58
2018-05-06 12:00:00 20.1 2 Oeste 4 Noroeste 0 -- -- 62
2018-05-06 11:00:00 16.6 3 Norte 6 Noroeste 0 -- -- 68
2018-05-06 10:00:00 13.1 0 Calma 3 Noroeste 0 -- -- 83
2018-05-06 09:00:00 9.1 0 Calma 3 Nordeste 0 -- -- 98
2018-05-06 08:00:00 8.5 0 Calma 4 Nordeste 0 -- -- 98
2018-05-06 07:00:00 8.7 0 Calma 4 Noroeste 0 -- -- 98
2018-05-06 06:00:00 9 0 Calma 3 Norte 0 -- -- 97
2018-05-06 05:00:00 9.3 0 Calma 3 Nordeste 0 -- -- 97
2018-05-06 04:00:00 8.6 0 Calma 2 Sudeste 0 -- -- 96
2018-05-06 03:00:00 8.8 0 Calma 3 Sudeste 0 -- -- 94
2018-05-06 02:00:00 9.6 0 Calma 4 Sudeste 0 -- -- 94
2018-05-06 01:00:00 10.7 2 Sudeste 4 Este 0 -- -- 93
2018-05-06 00:00:00 12 0 Calma 3 Sur 0 -- -- 90
2018-05-05 23:00:00 13 0 Calma 5 Este 0 -- -- 90
2018-05-05 22:00:00 14 2 Noroeste 6 Este 0 -- -- 84
2018-05-05 21:00:00 15.6 0 Calma 9 Norte 0 -- -- 76
2018-05-05 20:00:00 16.5 4 Norte 14 Noroeste 0 -- -- 67
2018-05-05 19:00:00 17.5 6 Noroeste 13 Norte 0 -- -- 67
2018-05-05 18:00:00 18.1 6 Oeste 12 Noroeste 0 -- -- 67
2018-05-05 17:00:00 16.3 4 Nordeste 9 Nordeste 0 -- -- 72
2018-05-05 16:00:00 16.1 2 Sudoeste 9 Norte 0 -- -- 74
2018-05-05 15:00:00 15.3 4 Noroeste 9 Noroeste 0 -- -- 75
2018-05-05 14:00:00 15.2 5 Noroeste 12 Oeste 0 -- -- 76
2018-05-05 13:00:00 14.8 3 Noroeste 11 Oeste 0 -- -- 76
2018-05-05 12:00:00 14.8 3 Oeste 13 Noroeste 0 -- -- 77
2018-05-05 11:00:00 14.7 4 Noroeste 11 Sudoeste 0 -- -- 77
2018-05-05 10:00:00 13.4 2 Sur 4 Sur 0 -- -- 81
2018-05-05 09:00:00 12 0 Calma 0 Calma 0 -- -- 89
2018-05-05 08:00:00 11.2 0 Calma 0 Calma 0 -- -- 92
2018-05-05 07:00:00 10.9 0 Calma 0 Calma 0 -- -- 93
2018-05-05 06:00:00 10.8 0 Calma 0 Calma 0 -- -- 93
2018-05-05 05:00:00 10.6 0 Calma 0 Calma 0 -- -- 94
2018-05-05 04:00:00 10.6 0 Calma 0 Calma 0 -- -- 92
2018-05-05 03:00:00 11.1 0 Calma 0 Calma 0 -- -- 91
2018-05-05 02:00:00 11.3 0 Calma 2 Este 0 -- -- 90
2018-05-05 01:00:00 11.4 0 Calma 2 Este 0 -- -- 90
2018-05-05 00:00:00 11.3 0 Calma 2 Sur 0 -- -- 91
2018-05-04 23:00:00 11.3 0 Calma 4 Sudeste 0 -- -- 88
2018-05-04 22:00:00 12.2 3 Sudeste 12 Norte 0 -- -- 82
2018-05-04 21:00:00 13.8 4 Norte 18 Noroeste 0 -- -- 74
2018-05-04 20:00:00 14.4 7 Norte 20 Norte 0 -- -- 69
2018-05-04 19:00:00 15.1 9 Noroeste 23 Noroeste 0 -- -- 64
2018-05-04 18:00:00 16 9 Noroeste 27 Noroeste 0 -- -- 61
2018-05-04 17:00:00 15.9 11 Noroeste 30 Noroeste 0 -- -- 60
2018-05-04 16:00:00 16.7 8 Noroeste 24 Noroeste 0 -- -- 58
2018-05-04 15:00:00 16.2 8 Norte 21 Noroeste 0 -- -- 56
2018-05-04 14:00:00 16.2 10 Noroeste 24 Noroeste 0 -- -- 59
2018-05-04 13:00:00 15.6 10 Noroeste 27 Noroeste 0 -- -- 64
2018-05-04 12:00:00 15.9 9 Norte 21 Norte 0 -- -- 67
2018-05-04 11:00:00 15 8 Norte 18 Noroeste 0 -- -- 68
2018-05-04 10:00:00 15.4 5 Noroeste 19 Noroeste 0 -- -- 74
2018-05-04 09:00:00 13.5 7 Noroeste 15 Noroeste 0 -- -- 81
2018-05-04 08:00:00 12.6 2 Norte 20 Noroeste 0 -- -- 85
2018-05-04 07:00:00 12.4 3 Norte 18 Norte 0 -- -- 84
2018-05-04 06:00:00 12.1 6 Noroeste 19 Oeste 0 -- -- 83
2018-05-04 05:00:00 12 4 Norte 15 Norte 0 -- -- 82
2018-05-04 04:00:00 11.6 3 Noroeste 17 Noroeste 0 -- -- 81
2018-05-04 03:00:00 11.3 5 Oeste 13 Oeste 0 -- -- 78
2018-05-04 02:00:00 11.3 8 Noroeste 22 Noroeste 0 -- -- 75
2018-05-04 01:00:00 11.3 4 Noroeste 14 Sudoeste 0 -- -- 73
2018-05-04 00:00:00 11.3 8 Oeste 21 Noroeste 0 -- -- 73
2018-05-03 23:00:00 10.7 2 Noroeste 10 Oeste 0 -- -- 76
2018-05-03 22:00:00 11 4 Oeste 21 Oeste 0 -- -- 72
2018-05-03 21:00:00 11.8 6 Noroeste 25 Noroeste 0 -- -- 68
2018-05-03 20:00:00 12.2 8 Noroeste 25 Noroeste 0 -- -- 67
2018-05-03 19:00:00 12.4 14 Noroeste 29 Oeste 0 -- -- 65
2018-05-03 18:00:00 12.9 10 Norte 29 Norte 0 -- -- 64
2018-05-03 17:00:00 13.4 10 Oeste 34 Noroeste 0 -- -- 67
2018-05-03 16:00:00 13.1 10 Noroeste 27 Norte 0 -- -- 67
2018-05-03 15:00:00 13.2 9 Noroeste 25 Oeste 0 -- -- 69
2018-05-03 14:00:00 12.6 9 Noroeste 31 Noroeste 0.2 -- -- 69
2018-05-03 13:00:00 12.6 12 Norte 30 Norte 0 -- -- 70
2018-05-03 12:00:00 11.4 4 Noroeste 13 Noroeste 0 -- -- 80
2018-05-03 11:00:00 11.2 7 Noroeste 19 Norte 0 -- -- 87
2018-05-03 10:00:00 10.9 3 Noroeste 18 Oeste 0.2 -- -- 91
2018-05-03 09:00:00 10.5 9 Noroeste 26 Noroeste 0.6 -- -- 91
2018-05-03 08:00:00 9.7 2 Sur 17 Norte 0 -- -- 94
2018-05-03 07:00:00 10.4 8 Noroeste 21 Oeste 0.4 -- -- 91
2018-05-03 06:00:00 10.3 2 Oeste 17 Noroeste 0.6 -- -- 96
2018-05-03 05:00:00 10.6 8 Oeste 26 Noroeste 1.6 -- -- 95
2018-05-03 04:00:00 11.6 11 Oeste 34 Oeste 1.8 -- -- 96
2018-05-03 03:00:00 11.9 8 Oeste 21 Noroeste 1.8 -- -- 95
2018-05-03 02:00:00 12.5 4 Noroeste 21 Noroeste 0.6 -- -- 96
2018-05-03 01:00:00 11.7 10 Oeste 24 Oeste 1.4 -- -- 99
2018-05-03 00:00:00 10.5 0 Calma 3 Este 3.2 -- -- 97
2018-05-02 23:00:00 10.4 0 Calma 3 Sur 2.6 -- -- 94
2018-05-02 22:00:00 10.5 0 Calma 5 Noroeste 2.8 -- -- 93
2018-05-02 21:00:00 11.3 0 Calma 3 Nordeste 1 -- -- 89
2018-05-02 20:00:00 12 0 Calma 4 Este 0.2 -- -- 84
2018-05-02 19:00:00 12.7 0 Calma 6 Noroeste 0 -- -- 71
2018-05-02 18:00:00 13.5 6 Noroeste 14 Sudoeste 0 -- -- 64
2018-05-02 17:00:00 14.9 7 Oeste 16 Noroeste 0 -- -- 50
2018-05-02 16:00:00 16.1 5 Norte 19 Norte 0 -- -- 46
2018-05-02 15:00:00 17.6 6 Norte 17 Noroeste 0 -- -- 36
2018-05-02 14:00:00 17.6 7 Noroeste 22 Noroeste 0 -- -- 45
2018-05-02 13:00:00 17.1 12 Noroeste 23 Noroeste 0 -- -- 48
2018-05-02 12:00:00 17.3 5 Noroeste 13 Nordeste 0 -- -- 50
2018-05-02 11:00:00 12.9 2 Oeste 5 Noroeste 0 -- -- 60
2018-05-02 10:00:00 9.6 0 Calma 4 Nordeste 0 -- -- 69
2018-05-02 09:00:00 5.7 0 Calma 2 Nordeste 0 -- -- 90
2018-05-02 08:00:00 3.8 0 Calma 0 Calma 0 -- -- 98
2018-05-02 07:00:00 3 0 Calma 2 Sudeste 0 -- -- 97
2018-05-02 06:00:00 2.9 0 Calma 2 Oeste 0 -- -- 97
2018-05-02 05:00:00 2.9 0 Calma 3 Sudeste 0 -- -- 97
2018-05-02 04:00:00 3 0 Calma 3 Sudeste 0 -- -- 97
2018-05-02 03:00:00 2.7 0 Calma 2 Sudeste 0 -- -- 96
2018-05-02 02:00:00 2.7 0 Calma 3 Sudeste 0 -- -- 95
2018-05-02 01:00:00 3.2 0 Calma 3 Sudeste 0 -- -- 94
2018-05-02 00:00:00 3.8 0 Calma 3 Sudeste 0 -- -- 92
2018-05-01 23:00:00 4.9 0 Calma 4 Sudeste 0 -- -- 89
2018-05-01 22:00:00 6.6 2 Sudeste 5 Sudeste 0 -- -- 85
2018-05-01 21:00:00 9.9 2 Sudoeste 9 Noroeste 0 -- -- 71
2018-05-01 20:00:00 13 4 Norte 13 Noroeste 0 -- -- 52
2018-05-01 19:00:00 13.8 6 Noroeste 16 Noroeste 0 -- -- 51
2018-05-01 18:00:00 14 10 Noroeste 19 Noroeste 0 -- -- 57
2018-05-01 17:00:00 13.8 9 Norte 20 Norte 0 -- -- 64
2018-05-01 16:00:00 13.4 8 Norte 21 Noroeste 0 -- -- 64
2018-05-01 15:00:00 14.1 10 Oeste 23 Oeste 0 -- -- 71
2018-05-01 14:00:00 12.6 6 Noroeste 18 Oeste 0 -- -- 83
2018-05-01 13:00:00 9.8 5 Oeste 20 Noroeste 1 -- -- 93
2018-05-01 12:00:00 11.6 5 Noroeste 14 Sur 0 -- -- 87
2018-05-01 11:00:00 10.3 0 Calma 5 Noroeste 1.4 -- -- 95
2018-05-01 10:00:00 9.8 2 Nordeste 5 Nordeste 0 -- -- 93
2018-05-01 09:00:00 8.3 3 Oeste 6 Oeste 0 -- -- 99
2018-05-01 08:00:00 6.8 3 Sudeste 6 Sudeste 0 -- -- 99
2018-05-01 07:00:00 6.5 0 Calma 4 Sudeste 0 -- -- 98
2018-05-01 06:00:00 7.5 0 Calma 8 Este 0.6 -- -- 98
2018-05-01 05:00:00 7.6 0 Calma 7 Sudeste 0.8 -- -- 98
2018-05-01 04:00:00 7.5 2 Sur 4 Sudeste 0.4 -- -- 98
2018-05-01 03:00:00 7.7 0 Calma 6 Noroeste 1.4 -- -- 97
2018-05-01 02:00:00 7.8 0 Calma 5 Nordeste 0.2 -- -- 96
2018-05-01 01:00:00 7.9 0 Calma 12 Noroeste 2.2 -- -- 96
2018-05-01 00:00:00 7.6 3 Norte 9 Noroeste 1 -- -- 95
2018-04-30 23:00:00 7.5 0 Calma 3 Sur 0 -- -- 93
2018-04-30 22:00:00 8.4 0 Calma 3 Norte 0 -- -- 91
2018-04-30 21:00:00 9.1 0 Calma 6 Oeste 0 -- -- 89
2018-04-30 20:00:00 9.3 0 Calma 19 Oeste 0.2 -- -- 81
2018-04-30 19:00:00 10.4 10 Noroeste 21 Oeste 0 -- -- 79
2018-04-30 18:00:00 11 10 Noroeste 22 Oeste 0 -- -- 78
2018-04-30 17:00:00 11.6 6 Oeste 26 Oeste 0 -- -- 72
2018-04-30 16:00:00 12.2 12 Noroeste 34 Oeste 0 -- -- 66
2018-04-30 15:00:00 13 13 Oeste 31 Noroeste 0 -- -- 63
2018-04-30 14:00:00 13.8 14 Noroeste 23 Noroeste 0 -- -- 63
2018-04-30 13:00:00 13.9 11 Noroeste 27 Noroeste 0 -- -- 59
2018-04-30 12:00:00 13.8 7 Sudoeste 22 Oeste 0 -- -- 60
2018-04-30 11:00:00 12.4 8 Oeste 16 Sudoeste 0 -- -- 67
2018-04-30 10:00:00 10.4 6 Sur 13 Sudoeste 0 -- -- 75
2018-04-30 09:00:00 9.2 0 Calma 3 Sur 0 -- -- 89
2018-04-30 08:00:00 8.4 0 Calma 4 Nordeste 0 -- -- 93
2018-04-30 07:00:00 8.4 2 Sudoeste 9 Sudoeste 0 -- -- 88
2018-04-30 06:00:00 8.5 0 Calma 3 Oeste 0.4 -- -- 94
2018-04-30 05:00:00 8.3 0 Calma 2 Norte 0 -- -- 94
2018-04-30 04:00:00 8.2 0 Calma 3 Sur 0 -- -- 93
2018-04-30 03:00:00 8.1 0 Calma 3 Sur 0 -- -- 92
2018-04-30 02:00:00 8.2 0 Calma 7 Noroeste 0 -- -- 91
2018-04-30 01:00:00 8.4 0 Calma 8 Noroeste 0 -- -- 89
2018-04-30 00:00:00 8 0 Calma 6 Sur 0 -- -- 90
2018-04-29 23:00:00 10 0 Calma 7 Sur 0 -- -- 85
2018-04-29 22:00:00 10.7 5 Sur 12 Sudoeste 0 -- -- 78
2018-04-29 21:00:00 11.7 5 Oeste 14 Sudoeste 0 -- -- 75
2018-04-29 20:00:00 13.1 5 Oeste 16 Sudoeste 0 -- -- 69
2018-04-29 19:00:00 12.6 6 Oeste 22 Noroeste 0 -- -- 71
2018-04-29 18:00:00 13.3 11 Oeste 26 Noroeste 0 -- -- 67
2018-04-29 17:00:00 14.2 7 Oeste 23 Noroeste 0 -- -- 65
2018-04-29 16:00:00 14.2 5 Noroeste 22 Noroeste 0 -- -- 67
2018-04-29 15:00:00 13.4 10 Oeste 20 Oeste 0 -- -- 71
2018-04-29 14:00:00 12.9 11 Noroeste 24 Noroeste 0 -- -- 72
2018-04-29 13:00:00 13 10 Oeste 30 Noroeste 0 -- -- 74
2018-04-29 12:00:00 13 8 Oeste 23 Noroeste 0 -- -- 85
2018-04-29 11:00:00 12.2 7 Noroeste 23 Noroeste 0 -- -- 86
2018-04-29 10:00:00 11.8 4 Oeste 19 Oeste 0 -- -- 90
2018-04-29 09:00:00 11.3 5 Oeste 11 Oeste 0 -- -- 91
2018-04-29 08:00:00 10.5 0 Calma 17 Sudoeste 0 -- -- 95
2018-04-29 07:00:00 10.6 2 Noroeste 14 Noroeste 0 -- -- 97
2018-04-29 06:00:00 11 2 Sudeste 4 Sur 0 -- -- 98
2018-04-29 05:00:00 11.5 0 Calma 3 Este 0 -- -- 98
2018-04-29 04:00:00 11.4 0 Calma 4 Sudoeste 0 -- -- 98
2018-04-29 03:00:00 11.5 0 Calma 4 Sudoeste 0 -- -- 98
2018-04-29 02:00:00 11.5 0 Calma 4 Nordeste 0 -- -- 98
2018-04-29 01:00:00 11.6 0 Calma 3 Nordeste 0 -- -- 97
2018-04-29 00:00:00 11.6 0 Calma 4 Oeste 0 -- -- 97
2018-04-28 23:00:00 11.5 0 Calma 3 Oeste 0 -- -- 97
2018-04-28 22:00:00 11.5 0 Calma 6 Sudoeste 0.2 -- -- 97
2018-04-28 21:00:00 11.5 3 Sudoeste 7 Sudoeste 0.4 -- -- 96
2018-04-28 20:00:00 11.6 3 Sur 11 Oeste 2.2 -- -- 95
2018-04-28 19:00:00 11.8 0 Calma 9 Noroeste 0.2 -- -- 93
2018-04-28 18:00:00 11.9 4 Sudoeste 12 Norte 0.2 -- -- 92
2018-04-28 17:00:00 12.4 5 Norte 12 Norte 0 -- -- 88
2018-04-28 16:00:00 13.1 6 Norte 12 Noroeste 0 -- -- 84
2018-04-28 15:00:00 13 3 Norte 8 Noroeste 0 -- -- 80
2018-04-28 14:00:00 12.5 3 Sur 9 Sudeste 0 -- -- 83
2018-04-28 13:00:00 11.8 4 Nordeste 12 Sudeste 0 -- -- 85
2018-04-28 12:00:00 12.1 4 Sudeste 10 Sudeste 0 -- -- 84
2018-04-28 11:00:00 11.8 0 Calma 4 Noroeste 0 -- -- 86
2018-04-28 10:00:00 10.7 0 Calma 3 Este 0 -- -- 93
2018-04-28 09:00:00 10 0 Calma 3 Este 0 -- -- 95
2018-04-28 08:00:00 9.9 0 Calma 4 Este 0 -- -- 96
2018-04-28 07:00:00 10 0 Calma 5 Sudoeste 0.6 -- -- 96
2018-04-28 06:00:00 10.2 0 Calma 8 Este 0.2 -- -- 95
2018-04-28 05:00:00 10.3 2 Norte 7 Este 0.2 -- -- 95
2018-04-28 04:00:00 10.7 3 Norte 6 Norte 1.4 -- -- 96
2018-04-28 03:00:00 10.7 0 Calma 4 Sur 0.8 -- -- 95
2018-04-28 02:00:00 10.8 0 Calma 4 Sur 0.2 -- -- 94
2018-04-28 01:00:00 11 0 Calma 4 Este 0 -- -- 93
2018-04-28 00:00:00 11.2 0 Calma 2 Sudeste 0 -- -- 92
2018-04-27 23:00:00 11.4 0 Calma 3 Sudeste 0 -- -- 90
2018-04-27 22:00:00 11.6 0 Calma 3 Este 0 -- -- 89
2018-04-27 21:00:00 12 0 Calma 3 Norte 0 -- -- 87
2018-04-27 20:00:00 12.1 0 Calma 14 Noroeste 0 -- -- 84
2018-04-27 19:00:00 12.9 8 Oeste 19 Oeste 0 -- -- 78
2018-04-27 18:00:00 14.1 5 Oeste 16 Oeste 0 -- -- 76
2018-04-27 17:00:00 14.2 8 Oeste 17 Oeste 0 -- -- 72
2018-04-27 16:00:00 13.9 5 Noroeste 19 Noroeste 0 -- -- 71
2018-04-27 15:00:00 13.2 9 Noroeste 21 Noroeste 0 -- -- 81
2018-04-27 14:00:00 14.4 6 Noroeste 22 Noroeste 0 -- -- 81
2018-04-27 13:00:00 15.9 9 Noroeste 25 Noroeste 0 -- -- 70
2018-04-27 12:00:00 16.3 7 Noroeste 32 Noroeste 0 -- -- 64
2018-04-27 11:00:00 16.1 10 Noroeste 22 Noroeste 0 -- -- 67
2018-04-27 10:00:00 13.7 2 Norte 17 Nordeste 0 -- -- 62
2018-04-27 09:00:00 10 4 Nordeste 11 Nordeste 0 -- -- 93
2018-04-27 08:00:00 8.9 2 Este 5 Este 0 -- -- 97
2018-04-27 07:00:00 8.5 0 Calma 3 Este 0 -- -- 97
2018-04-27 06:00:00 8.3 2 Sudoeste 4 Este 0 -- -- 98
2018-04-27 05:00:00 8.2 2 Sudeste 4 Sudeste 0 -- -- 97
2018-04-27 04:00:00 8.3 0 Calma 3 Sur 0 -- -- 97
2018-04-27 03:00:00 8.2 0 Calma 3 Nordeste 0 -- -- 97
2018-04-27 02:00:00 7.1 0 Calma 2 Sudeste 0 -- -- 96
2018-04-27 01:00:00 7.2 0 Calma 2 Sudeste 0 -- -- 94
2018-04-27 00:00:00 8.1 0 Calma 3 Sudeste 0 -- -- 93
2018-04-26 23:00:00 9.3 2 Sudeste 4 Este 0 -- -- 91
2018-04-26 22:00:00 11.4 2 Sudeste 14 Norte 0 -- -- 85
2018-04-26 21:00:00 13.8 5 Norte 17 Norte 0 -- -- 75
2018-04-26 20:00:00 15.1 8 Norte 17 Norte 0 -- -- 69
2018-04-26 19:00:00 15.6 5 Norte 18 Norte 0 -- -- 67
2018-04-26 18:00:00 16.1 7 Norte 18 Noroeste 0 -- -- 65
2018-04-26 17:00:00 15.9 8 Norte 18 Noroeste 0 -- -- 67
2018-04-26 16:00:00 16.1 10 Noroeste 22 Noroeste 0 -- -- 66
2018-04-26 15:00:00 16.5 4 Norte 18 Nordeste 0 -- -- 65
2018-04-26 14:00:00 16.3 8 Este 18 Sudeste 0 -- -- 62
2018-04-26 13:00:00 16.3 9 Nordeste 21 Sudeste 0 -- -- 58
2018-04-26 12:00:00 15.9 6 Este 18 Sudeste 0 -- -- 66
2018-04-26 11:00:00 15.8 10 Este 19 Sudeste 0 -- -- 66
2018-04-26 10:00:00 13.6 2 Noroeste 5 Oeste 0 -- -- 80
2018-04-26 09:00:00 10.3 2 Noroeste 4 Noroeste 0 -- -- 97
2018-04-26 08:00:00 10 0 Calma 3 Noroeste 0 -- -- 96
2018-04-26 07:00:00 10.2 0 Calma 2 Oeste 0 -- -- 93
2018-04-26 06:00:00 11.7 0 Calma 3 Noroeste 0 -- -- 95
2018-04-26 05:00:00 12 0 Calma 3 Noroeste 0.2 -- -- 95
2018-04-26 04:00:00 12.2 0 Calma 4 Noroeste 0 -- -- 94
2018-04-26 03:00:00 12.4 2 Sur 13 Noroeste 0 -- -- 90
2018-04-26 02:00:00 12.8 4 Noroeste 14 Oeste 0.6 -- -- 90
2018-04-26 01:00:00 13 2 Sur 4 Sudeste 0.8 -- -- 95
2018-04-26 00:00:00 13.2 0 Calma 0 Calma 0.2 -- -- 93
2018-04-25 23:00:00 13.2 0 Calma 5 Oeste 0 -- -- 93
2018-04-25 22:00:00 13.5 2 Sudoeste 7 Oeste 0.2 -- -- 91
2018-04-25 21:00:00 14.1 4 Oeste 7 Oeste 0 -- -- 84
2018-04-25 20:00:00 14.7 3 Oeste 13 Oeste 0 -- -- 79
2018-04-25 19:00:00 15.2 7 Oeste 12 Oeste 0 -- -- 78
2018-04-25 18:00:00 16.4 4 Noroeste 14 Noroeste 0 -- -- 74
2018-04-25 17:00:00 16.3 3 Sudoeste 14 Oeste 0 -- -- 74
2018-04-25 16:00:00 15.5 4 Nordeste 14 Norte 0 -- -- 78
2018-04-25 15:00:00 15.1 6 Nordeste 16 Norte 0 -- -- 81
2018-04-25 14:00:00 15.3 3 Nordeste 14 Noroeste 0 -- -- 85
2018-04-25 13:00:00 15.2 5 Norte 11 Noroeste 0 -- -- 89
2018-04-25 12:00:00 15.3 3 Norte 12 Oeste 0 -- -- 88
2018-04-25 11:00:00 15.6 4 Oeste 9 Oeste 0 -- -- 90
2018-04-25 10:00:00 15.3 0 Calma 4 Sudoeste 0 -- -- 91
2018-04-25 09:00:00 14.7 0 Calma 3 Nordeste 0.4 -- -- 94
2018-04-25 08:00:00 14.6 0 Calma 5 Sudoeste 0 -- -- 94
2018-04-25 07:00:00 14.8 3 Nordeste 8 Norte 0 -- -- 91
2018-04-25 06:00:00 15 2 Norte 7 Nordeste 0 -- -- 90
2018-04-25 05:00:00 15 2 Norte 6 Norte 0 -- -- 90
2018-04-25 04:00:00 15.1 2 Norte 8 Norte 0 -- -- 90
2018-04-25 03:00:00 15.3 5 Norte 10 Norte 0 -- -- 89
2018-04-25 02:00:00 15.5 0 Calma 4 Nordeste 0 -- -- 89
2018-04-25 01:00:00 15.9 2 Nordeste 12 Noroeste 0 -- -- 87
2018-04-25 00:00:00 16.4 3 Noroeste 12 Noroeste 0 -- -- 87
2018-04-24 23:00:00 16.9 4 Noroeste 15 Noroeste 0 -- -- 85
2018-04-24 22:00:00 17.4 4 Noroeste 15 Norte 0 -- -- 85
2018-04-24 21:00:00 17.4 9 Norte 21 Nordeste 0 -- -- 83
2018-04-24 20:00:00 19.1 14 Noroeste 26 Noroeste 0 -- -- 76
2018-04-24 19:00:00 20.8 13 Noroeste 25 Noroeste 0 -- -- 74
2018-04-24 18:00:00 23.2 10 Noroeste 24 Noroeste 0 -- -- 69
2018-04-24 17:00:00 24.8 10 Noroeste 21 Noroeste 0 -- -- 65
2018-04-24 16:00:00 25.4 10 Noroeste 21 Norte 0 -- -- 64
2018-04-24 15:00:00 24.9 5 Nordeste 18 Noroeste 0 -- -- 62
2018-04-24 14:00:00 22.7 10 Noroeste 22 Noroeste 0 -- -- 71
2018-04-24 13:00:00 22.7 4 Nordeste 17 Nordeste 0 -- -- 67
2018-04-24 12:00:00 21.5 5 Este 12 Este 0 -- -- 67
2018-04-24 11:00:00 19.6 0 Calma 5 Nordeste 0 -- -- 74
2018-04-24 10:00:00 17.5 0 Calma 5 Este 0 -- -- 82
2018-04-24 09:00:00 15.4 0 Calma -- -- 0 -- -- 91
2018-04-24 08:00:00 14.8 0 Calma 3 Norte 0 -- -- 95
2018-04-24 07:00:00 14.6 0 Calma 3 Sur 0 -- -- 94
2018-04-24 06:00:00 14.7 0 Calma 3 Este 0 -- -- 94
2018-04-24 05:00:00 14.7 0 Calma 3 Sudoeste 0 -- -- 94
2018-04-24 04:00:00 14.9 0 Calma 3 Noroeste 0 -- -- 92
2018-04-24 03:00:00 15 0 Calma 2 Norte 0 -- -- 93
2018-04-24 02:00:00 15 0 Calma 4 Noroeste 0 -- -- 92
2018-04-24 01:00:00 15.1 0 Calma 3 Oeste 0 -- -- 91
2018-04-24 00:00:00 15 0 Calma 4 Sudoeste 0 -- -- 91
2018-04-23 23:00:00 15.1 0 Calma 5 Oeste 0 -- -- 90
2018-04-23 22:00:00 15.3 3 Noroeste 6 Noroeste 0 -- -- 88
2018-04-23 21:00:00 15.4 3 Noroeste 11 Norte 0 -- -- 88
2018-04-23 20:00:00 15.5 5 Noroeste 12 Noroeste 0 -- -- 86
2018-04-23 19:00:00 15.6 6 Noroeste 16 Noroeste 0 -- -- 86
2018-04-23 18:00:00 16.2 9 Noroeste 22 Norte 0 -- -- 83
2018-04-23 17:00:00 17.9 11 Norte 21 Nordeste 0 -- -- 80
2018-04-23 16:00:00 18.4 5 Noroeste 13 Noroeste 0 -- -- 78
2018-04-23 15:00:00 18.1 5 Norte 12 Noroeste 0 -- -- 81
2018-04-23 14:00:00 16.7 4 Norte 7 Noroeste 0 -- -- 86
2018-04-23 13:00:00 16.2 0 Calma 4 Norte 0 -- -- 90
2018-04-23 12:00:00 15.7 2 Sudeste 6 Sudoeste 0 -- -- 91
2018-04-23 11:00:00 15.2 4 Oeste 8 Noroeste 0 -- -- 94
2018-04-23 10:00:00 14.7 0 Calma 6 Sur 0.2 -- -- 95
2018-04-23 09:00:00 14.5 0 Calma 2 Este 0 -- -- 95
2018-04-23 08:00:00 14.2 0 Calma 3 Oeste 0 -- -- 95
2018-04-23 07:00:00 14 0 Calma 4 Oeste 0 -- -- 96
2018-04-23 06:00:00 13.9 0 Calma 4 Oeste 0 -- -- 96
2018-04-23 05:00:00 14.1 2 Oeste 4 Sudoeste 0 -- -- 96
2018-04-23 04:00:00 14.3 0 Calma 4 Sur 0 -- -- 96
2018-04-23 03:00:00 14.4 0 Calma 3 Sur 0 -- -- 95
2018-04-23 02:00:00 14.6 0 Calma 3 Nordeste 0 -- -- 96
2018-04-23 01:00:00 14.6 0 Calma 4 Sur 0 -- -- 95
2018-04-23 00:00:00 15.2 0 Calma 6 Oeste 2.2 -- -- 93
2018-04-22 23:00:00 15.6 4 Oeste 13 Oeste 1 -- -- 90
2018-04-22 22:00:00 16.7 5 Oeste 16 Oeste 0 -- -- 81
2018-04-22 21:00:00 17.7 3 Sur 6 Sur 0.4 -- -- 82
2018-04-22 20:00:00 19.9 3 Sur 7 Sudeste 0 -- -- 69
2018-04-22 19:00:00 21.5 4 Nordeste 10 Este 0 -- -- 56
2018-04-22 18:00:00 21.8 6 Norte 12 Noroeste 0 -- -- 59
2018-04-22 17:00:00 21.7 6 Este 16 Sudeste 0 -- -- 58
2018-04-22 16:00:00 21.3 5 Norte 17 Noroeste 0 -- -- 61
2018-04-22 15:00:00 21.4 8 Norte 22 Noroeste 0 -- -- 58
2018-04-22 14:00:00 21 12 Norte 24 Noroeste 0 -- -- 57
2018-04-22 13:00:00 21.8 10 Norte 24 Noroeste 0 -- -- 56
2018-04-22 12:00:00 25 9 Oeste 19 Sudoeste 0 -- -- 45
2018-04-22 11:00:00 23.7 2 Norte 8 Oeste 0 -- -- 46
2018-04-22 10:00:00 20.6 2 Norte 5 Norte 0 -- -- 53
2018-04-22 09:00:00 18.1 4 Este 8 Sudeste 0 -- -- 67
2018-04-22 08:00:00 17.1 3 Sudeste 11 Sur 0 -- -- 63
2018-04-22 07:00:00 19.7 5 Sur 26 Sur 0 -- -- 50
2018-04-22 06:00:00 19.3 6 Sudeste 16 Sudeste 0 -- -- 52
2018-04-22 05:00:00 16.8 3 Este 13 Sudeste 0 -- -- 62
2018-04-22 04:00:00 17.9 3 Sudeste 16 Sudeste 0 -- -- 60
2018-04-22 03:00:00 20.2 3 Sudeste 15 Este 0 -- -- 51
2018-04-22 02:00:00 19.4 4 Este 15 Nordeste 0 -- -- 50
2018-04-22 01:00:00 17.5 0 Calma 18 Este 0 -- -- 64
2018-04-22 00:00:00 19.6 6 Sudeste 16 Sur 0 -- -- 54